Time;durP1;ratioP1;P1;durP2;ratioP2;P2;SDS_P1;SDS_P2;PMS_P1;PMS_P2;Temp;Humidity;BMP_temperature;BMP_pressure;BME280_temperature;BME280_humidity;BME280_pressure;Samples;Min_cycle;Max_cycle;Signal;HPM_P1;HPM_P2
2023/12/09 00:00:48;;;;;;;2.03;1.85;;;;;;;4.48;59.42;100150.47;5309950;26;20064;-89
2023/12/09 00:03:14;;;;;;;1.60;1.12;;;;;;;4.35;59.42;100144.47;5347096;26;20067;-88
2023/12/09 00:05:39;;;;;;;3.92;1.20;;;;;;;4.50;59.42;100143.62;5309391;26;20113;-88
2023/12/09 00:08:05;;;;;;;0.77;0.77;;;;;;;4.47;59.42;100149.59;5308648;26;20328;-88
2023/12/09 00:10:30;;;;;;;0.05;0.05;;;;;;;4.57;59.43;100151.31;5309025;26;20090;-88
2023/12/09 00:12:55;;;;;;;1.20;1.17;;;;;;;4.45;59.42;100145.31;5327763;26;20087;-88
2023/12/09 00:15:21;;;;;;;2.25;1.87;;;;;;;4.47;59.42;100152.19;5308480;26;28537;-88
2023/12/09 00:17:46;;;;;;;1.48;1.37;;;;;;;4.60;59.43;100153.88;5308671;26;20116;-88
2023/12/09 00:20:12;;;;;;;3.55;3.25;;;;;;;4.55;59.43;100152.19;5309111;26;20373;-88
2023/12/09 00:22:38;;;;;;;2.35;2.20;;;;;;;4.58;59.43;100155.63;5309794;26;20119;-88
2023/12/09 00:25:05;;;;;;;2.65;1.35;;;;;;;4.60;59.43;100148.72;5309489;26;20056;-87
2023/12/09 00:27:31;;;;;;;0.73;0.73;;;;;;;4.54;59.43;100153.06;5327219;26;20082;-87
2023/12/09 00:29:56;;;;;;;4.20;0.95;;;;;;;4.38;59.42;100152.19;5327623;26;20115;-86
2023/12/09 00:32:22;;;;;;;3.12;2.35;;;;;;;4.42;59.43;100151.31;5345502;26;20095;-87
2023/12/09 00:34:47;;;;;;;0.10;0.10;;;;;;;4.39;59.42;100151.34;5327661;26;20510;-87
2023/12/09 00:37:12;;;;;;;1.62;1.15;;;;;;;4.41;59.42;100148.75;5327526;26;20149;-87
2023/12/09 00:39:38;;;;;;;0.55;0.55;;;;;;;4.54;59.43;100155.63;5326917;26;24796;-87
2023/12/09 00:42:03;;;;;;;0.32;0.32;;;;;;;4.54;59.43;100148.75;5308300;26;29807;-86
2023/12/09 00:44:29;;;;;;;1.95;1.85;;;;;;;4.38;59.42;100147.03;5327998;26;20104;-87
2023/12/09 00:46:54;;;;;;;1.42;1.33;;;;;;;4.37;59.42;100149.63;5366284;26;20361;-87
2023/12/09 00:49:20;;;;;;;0.10;0.10;;;;;;;4.43;59.43;100145.31;5345804;26;20133;-86
2023/12/09 00:51:45;;;;;;;0.55;0.55;;;;;;;4.56;59.43;100152.19;5346174;26;20360;-87
2023/12/09 00:54:10;;;;;;;1.65;1.35;;;;;;;4.52;59.43;100147.03;5366610;26;20155;-87
2023/12/09 00:56:36;;;;;;;1.15;1.10;;;;;;;4.53;59.43;100149.63;5346430;26;20161;-87
2023/12/09 00:59:02;;;;;;;4.90;1.95;;;;;;;4.41;59.42;100152.19;5346330;26;20086;-87
2023/12/09 01:01:29;;;;;;;0.57;0.57;;;;;;;4.32;59.41;100152.22;5328164;26;20056;-87
2023/12/09 01:03:54;;;;;;;0.20;0.20;;;;;;;4.28;59.42;100153.94;5345017;26;20075;-87
2023/12/09 01:06:21;;;;;;;0.30;0.30;;;;;;;4.43;59.43;100153.03;5308545;26;22771;-87
2023/12/09 01:08:46;;;;;;;5.43;3.47;;;;;;;4.56;59.43;100153.91;5346517;26;20074;-87
2023/12/09 01:11:12;;;;;;;0.70;0.70;;;;;;;4.51;59.43;100151.34;5326737;26;24149;-87
2023/12/09 01:13:37;;;;;;;7.07;2.15;;;;;;;4.54;59.43;100151.34;5309084;26;20134;-87
2023/12/09 01:16:03;;;;;;;0.52;0.52;;;;;;;4.47;59.42;100154.75;5308443;26;21509;-87
2023/12/09 01:18:28;;;;;;;0.35;0.35;;;;;;;4.42;59.43;100156.47;5366361;26;20109;-88
2023/12/09 01:20:54;;;;;;;3.10;2.87;;;;;;;4.64;59.44;100144.44;5345480;26;24531;-88
2023/12/09 01:23:19;;;;;;;0.68;0.68;;;;;;;4.78;59.44;100137.53;5366109;26;20074;-88
2023/12/09 01:25:45;;;;;;;0.90;0.90;;;;;;;4.67;59.44;100140.97;5345656;26;20130;-88
2023/12/09 01:28:10;;;;;;;0.65;0.65;;;;;;;4.73;59.44;100138.38;5366421;26;20107;-88
2023/12/09 01:30:35;;;;;;;0.75;0.75;;;;;;;4.60;59.43;100143.56;5346587;26;20412;-88
2023/12/09 01:33:01;;;;;;;3.30;2.28;;;;;;;4.49;59.42;100144.44;5328117;26;20067;-88
2023/12/09 01:35:26;;;;;;;1.50;1.17;;;;;;;4.42;59.42;100146.16;5346468;26;26226;-88
2023/12/09 01:37:52;;;;;;;4.55;2.22;;;;;;;4.51;59.43;100145.31;5311339;26;20099;-88
2023/12/09 01:40:17;;;;;;;0.22;0.22;;;;;;;4.48;59.42;100135.84;5347222;26;20157;-87
2023/12/09 01:42:42;;;;;;;1.02;0.98;;;;;;;4.44;59.42;100136.72;5308223;26;26758;-88
2023/12/09 01:45:09;;;;;;;0.73;0.50;;;;;;;4.43;59.43;100137.59;5308965;26;20079;-88
2023/12/09 01:47:35;;;;;;;0.60;0.60;;;;;;;4.43;59.43;100141.87;5309396;26;20173;-88
2023/12/09 01:50:02;;;;;;;2.15;1.50;;;;;;;4.26;59.41;100139.31;5309170;26;20056;-88
2023/12/09 01:52:27;;;;;;;0.82;0.82;;;;;;;4.28;59.42;100132.47;5346133;26;20052;-87
2023/12/09 01:54:53;;;;;;;1.35;1.33;;;;;;;4.52;59.43;100135.00;5345862;26;20067;-88
2023/12/09 01:57:19;;;;;;;1.20;1.10;;;;;;;4.57;59.43;100138.44;5326993;26;20119;-87
2023/12/09 01:59:45;;;;;;;0.70;0.43;;;;;;;4.64;59.44;100139.28;5312521;26;20052;-87
2023/12/09 02:02:10;;;;;;;1.20;1.20;;;;;;;4.63;59.43;100140.12;5345586;26;21452;-87
2023/12/09 02:04:36;;;;;;;0.65;0.65;;;;;;;4.73;59.44;100138.38;5365907;26;20114;-87
2023/12/09 02:07:01;;;;;;;1.77;0.40;;;;;;;4.71;59.43;100138.38;5366115;26;20113;-87
2023/12/09 02:09:26;;;;;;;0.47;0.47;;;;;;;4.57;59.42;100145.31;5345541;26;20061;-87
2023/12/09 02:11:59;;;;;;;10.85;1.12;;;;;;;4.57;59.44;100150.47;5327502;26;20068;-88
2023/12/09 02:15:03;;;;;;;0.60;0.60;;;;;;;4.63;59.43;100143.56;5328331;26;20120;-88
2023/12/09 02:17:34;;;;;;;0.65;0.60;;;;;;;4.55;59.43;100142.75;5346050;26;20064;-88
2023/12/09 02:20:02;;;;;;;3.40;2.25;;;;;;;4.49;59.42;100144.44;5328684;26;20491;-88
2023/12/09 02:22:28;;;;;;;1.55;1.45;;;;;;;4.40;59.42;100139.31;5327280;26;20072;-87
2023/12/09 02:24:53;;;;;;;0.98;0.50;;;;;;;4.59;59.43;100139.28;5327379;26;20082;-87
2023/12/09 02:27:27;;;;;;;1.25;1.23;;;;;;;4.46;59.42;100145.31;5326990;26;20099;-86
2023/12/09 02:30:10;;;;;;;1.70;1.62;;;;;;;4.34;59.41;100136.75;5347030;26;20131;-86
2023/12/09 02:32:35;;;;;;;1.95;1.85;;;;;;;4.50;59.42;100141.03;5345937;26;20047;-88
2023/12/09 02:35:02;;;;;;;2.50;2.30;;;;;;;4.35;59.41;100143.62;5327280;26;20110;-88
2023/12/09 02:37:30;;;;;;;0.50;0.32;;;;;;;4.30;59.42;100138.47;5309320;26;20116;-87
2023/12/09 02:39:57;;;;;;;1.83;1.73;;;;;;;4.56;59.43;100134.12;5330261;26;20061;-88
2023/12/09 02:42:23;;;;;;;1.12;1.12;;;;;;;4.58;59.43;100131.56;5327498;26;20066;-88
2023/12/09 02:44:48;;;;;;;0.32;0.25;;;;;;;4.62;59.43;100130.69;5345301;26;24939;-87
2023/12/09 02:47:14;;;;;;;0.55;0.55;;;;;;;4.59;59.43;100128.13;5345374;26;23149;-88
2023/12/09 02:49:39;;;;;;;1.17;1.15;;;;;;;4.41;59.42;100139.31;5365495;26;20083;-88
2023/12/09 02:52:05;;;;;;;1.25;1.20;;;;;;;4.40;59.42;100132.44;5327296;26;20058;-88
2023/12/09 02:54:30;;;;;;;0.08;0.08;;;;;;;4.40;59.42;100137.59;5327063;26;20117;-88
2023/12/09 02:56:56;;;;;;;1.37;0.80;;;;;;;4.42;59.42;100145.31;5345317;26;20409;-88
2023/12/09 02:59:21;;;;;;;0.40;0.40;;;;;;;4.42;59.43;100135.87;5327289;26;20087;-87
2023/12/09 03:01:47;;;;;;;0.30;0.30;;;;;;;4.43;59.43;100142.72;5326512;26;32581;-88
2023/12/09 03:04:13;;;;;;;2.17;1.10;;;;;;;4.18;59.41;100144.47;5327175;26;20113;-87
2023/12/09 03:06:39;;;;;;;0.37;0.37;;;;;;;4.20;59.41;100147.91;5346369;26;20717;-88
2023/12/09 03:09:04;;;;;;;0.68;0.68;;;;;;;4.31;59.42;100147.91;5347762;26;20085;-89
2023/12/09 03:11:30;;;;;;;1.20;1.10;;;;;;;4.39;59.42;100142.75;5329366;26;20052;-87
2023/12/09 03:13:55;;;;;;;2.47;2.12;;;;;;;4.27;59.42;100146.19;5330485;26;22606;-87
2023/12/09 03:16:21;;;;;;;3.50;2.12;;;;;;;4.45;59.42;100156.47;5310339;26;20060;-87
2023/12/09 03:18:46;;;;;;;7.60;4.22;;;;;;;4.31;59.41;100156.50;5328063;26;20091;-88
2023/12/09 03:21:18;;;;;;;0.68;0.68;;;;;;;4.53;59.43;100157.34;5309967;26;20072;-87
2023/12/09 03:23:43;;;;;;;0.43;0.43;;;;;;;4.47;59.42;100159.06;5329366;26;20059;-88
2023/12/09 03:26:18;;;;;;;0.60;0.30;;;;;;;4.51;59.43;100160.78;5328123;26;20070;-88
2023/12/09 03:28:44;;;;;;;5.15;1.98;;;;;;;4.44;59.43;100161.63;5346577;26;20458;-88
2023/12/09 03:31:13;;;;;;;0.85;0.85;;;;;;;4.40;59.42;100155.63;5328124;26;20091;-88
2023/12/09 03:33:38;;;;;;;2.22;2.12;;;;;;;4.38;59.42;100153.91;5309561;26;20546;-88
2023/12/09 03:36:05;;;;;;;0.40;0.40;;;;;;;4.29;59.42;100159.94;5328985;26;20074;-88
2023/12/09 03:38:32;;;;;;;0.80;0.73;;;;;;;4.34;59.41;100159.94;5346276;26;20075;-88
2023/12/09 03:40:57;;;;;;;0.60;0.60;;;;;;;4.35;59.42;100159.94;5346696;26;20065;-88
2023/12/09 03:43:23;;;;;;;4.00;2.25;;;;;;;4.22;59.41;100164.22;5309038;26;20483;-88
2023/12/09 03:45:48;;;;;;;2.47;2.28;;;;;;;4.44;59.42;100167.66;5365954;26;23812;-88
2023/12/09 03:48:13;;;;;;;0.93;0.93;;;;;;;4.31;59.41;100169.37;5308599;26;29011;-87
2023/12/09 03:50:39;;;;;;;3.87;1.98;;;;;;;4.22;59.42;100169.37;5327371;26;24944;-88
2023/12/09 03:53:04;;;;;;;1.85;1.58;;;;;;;4.23;59.41;100172.81;5345870;26;21821;-89
2023/12/09 03:55:29;;;;;;;2.17;1.98;;;;;;;4.39;59.42;100171.94;5349452;26;20067;-89
2023/12/09 03:57:55;;;;;;;2.22;2.12;;;;;;;4.53;59.43;100169.37;5309554;26;20100;-89
2023/12/09 04:00:22;;;;;;;1.95;1.17;;;;;;;4.38;59.42;100170.22;5309085;26;21436;-88
2023/12/09 04:02:48;;;;;;;0.75;0.75;;;;;;;4.22;59.41;100165.94;5310114;26;20414;-89
2023/12/09 04:05:13;;;;;;;1.25;1.15;;;;;;;4.12;59.40;100171.94;5328108;26;20067;-89
2023/12/09 04:07:39;;;;;;;0.98;0.95;;;;;;;4.30;59.42;100169.37;5309300;26;20390;-90
2023/12/09 04:10:04;;;;;;;0.82;0.82;;;;;;;4.18;59.40;100174.53;5309725;26;20077;-89
2023/12/09 04:12:30;;;;;;;0.82;0.80;;;;;;;4.32;59.41;100171.09;5309465;26;20130;-89
2023/12/09 04:14:57;;;;;;;2.08;1.98;;;;;;;4.16;59.41;100166.78;5329276;26;20055;-89
2023/12/09 04:17:22;;;;;;;1.15;1.05;;;;;;;4.24;59.42;100172.78;5311157;26;20055;-88
2023/12/09 04:19:48;;;;;;;1.30;1.05;;;;;;;4.15;59.41;100167.66;5309514;26;20479;-89
2023/12/09 04:22:13;;;;;;;0.93;0.93;;;;;;;4.09;59.41;100166.78;5309342;26;20123;-88
2023/12/09 04:24:40;;;;;;;0.32;0.32;;;;;;;4.15;59.41;100162.50;5309457;26;20444;-88
2023/12/09 04:27:05;;;;;;;1.15;1.02;;;;;;;4.10;59.40;100166.78;5309493;26;20066;-89
2023/12/09 04:29:31;;;;;;;0.43;0.43;;;;;;;4.26;59.41;100165.09;5309260;26;20400;-89
2023/12/09 04:31:57;;;;;;;0.55;0.55;;;;;;;4.29;59.42;100170.25;5309109;26;20147;-89
2023/12/09 04:34:22;;;;;;;0.45;0.30;;;;;;;4.13;59.41;100168.50;5309651;26;20143;-89
2023/12/09 04:36:48;;;;;;;0.82;0.82;;;;;;;3.99;59.40;100171.91;5347437;26;20103;-88
2023/12/09 04:39:14;;;;;;;0.30;0.30;;;;;;;4.46;59.42;100172.81;5311000;26;20399;-88
2023/12/09 04:41:40;;;;;;;2.33;1.55;;;;;;;4.53;59.43;100180.56;5309501;26;115688;-88
2023/12/09 04:44:05;;;;;;;2.05;1.92;;;;;;;4.45;59.42;100173.66;5313010;26;20068;-88
2023/12/09 04:46:31;;;;;;;0.95;0.95;;;;;;;4.22;59.41;100183.97;5375084;26;20081;-88
2023/12/09 04:48:56;;;;;;;1.95;1.83;;;;;;;4.25;59.41;100178.81;5347256;26;20068;-90
2023/12/09 04:51:23;;;;;;;0.90;0.90;;;;;;;4.17;59.41;100177.97;5341941;26;20086;-88
2023/12/09 04:53:48;;;;;;;0.85;0.85;;;;;;;4.08;59.40;100170.22;5366783;26;20059;-88
2023/12/09 04:56:14;;;;;;;2.40;2.20;;;;;;;4.10;59.41;100173.66;5366086;26;20407;-87
2023/12/09 04:58:39;;;;;;;1.58;0.95;;;;;;;4.16;59.41;100177.09;5345781;26;20973;-87
2023/12/09 05:01:05;;;;;;;1.10;1.02;;;;;;;4.24;59.41;100172.78;5345838;26;20076;-88
2023/12/09 05:03:30;;;;;;;3.50;1.85;;;;;;;4.36;59.42;100182.25;5366710;26;20090;-88
2023/12/09 05:05:56;;;;;;;1.42;1.37;;;;;;;4.19;59.40;100184.81;5327880;26;20087;-87
2023/12/09 05:08:21;;;;;;;1.65;1.55;;;;;;;4.23;59.41;100178.81;5327809;26;20108;-87
2023/12/09 05:10:47;;;;;;;1.12;0.90;;;;;;;4.48;59.42;100176.22;5326978;26;29608;-88
2023/12/09 05:13:13;;;;;;;0.25;0.25;;;;;;;4.63;59.43;100168.50;5329138;26;20497;-87
2023/12/09 05:15:38;;;;;;;2.15;1.95;;;;;;;4.72;59.44;100176.22;5327612;26;20099;-88
2023/12/09 05:18:03;;;;;;;3.50;2.25;;;;;;;4.57;59.43;100166.78;5327187;26;31189;-88
2023/12/09 05:20:30;;;;;;;0.10;0.10;;;;;;;4.49;59.42;100171.06;5345668;26;22238;-88
2023/12/09 05:22:55;;;;;;;0.00;0.00;;;;;;;4.49;59.42;100171.06;5328095;26;20068;-88
2023/12/09 05:25:20;;;;;;;0.37;0.37;;;;;;;4.47;59.42;100170.22;5366551;26;20407;-87
2023/12/09 05:27:46;;;;;;;0.20;0.20;;;;;;;4.41;59.42;100172.81;5327161;26;23355;-88
2023/12/09 05:30:12;;;;;;;1.77;0.75;;;;;;;4.35;59.42;100177.97;5346225;26;20080;-88
2023/12/09 05:32:38;;;;;;;1.42;0.82;;;;;;;4.16;59.41;100187.41;5348207;26;20097;-88
2023/12/09 05:35:04;;;;;;;0.65;0.60;;;;;;;4.22;59.41;100184.81;5309294;26;20112;-88
2023/12/09 05:37:29;;;;;;;1.58;1.48;;;;;;;4.06;59.40;100185.69;5308977;26;20381;-89
2023/12/09 05:39:55;;;;;;;2.67;2.28;;;;;;;4.10;59.40;100199.44;5308243;26;20091;-89
2023/12/09 05:42:20;;;;;;;1.20;1.10;;;;;;;4.22;59.41;100205.44;5346021;26;20372;-89
2023/12/09 05:44:46;;;;;;;0.52;0.52;;;;;;;4.23;59.42;100199.44;5327010;26;20102;-89
2023/12/09 05:47:11;;;;;;;0.40;0.40;;;;;;;4.11;59.40;100196.00;5309191;26;20063;-88
2023/12/09 05:49:37;;;;;;;2.12;1.95;;;;;;;4.11;59.40;100190.84;5308867;26;20150;-89
2023/12/09 05:52:02;;;;;;;6.35;2.53;;;;;;;4.18;59.41;100195.12;5346161;26;20329;-89
2023/12/09 05:54:31;;;;;;;1.70;1.60;;;;;;;4.24;59.41;100184.81;5378240;26;20080;-88
2023/12/09 05:56:56;;;;;;;1.85;1.40;;;;;;;4.14;59.41;100186.53;5347923;26;20039;-88
2023/12/09 05:59:22;;;;;;;1.65;1.10;;;;;;;4.31;59.42;100178.84;5378928;26;20061;-88
2023/12/09 06:01:47;;;;;;;0.60;0.60;;;;;;;4.03;59.39;100182.25;5335148;26;26589;-88
2023/12/09 06:04:12;;;;;;;0.10;0.10;;;;;;;4.22;59.41;100183.97;5331876;26;20841;-88
2023/12/09 06:06:38;;;;;;;0.00;0.00;;;;;;;4.25;59.41;100189.13;5347415;26;20099;-88
2023/12/09 06:09:04;;;;;;;0.80;0.80;;;;;;;4.37;59.42;100188.28;5327451;26;20361;-90
2023/12/09 06:11:30;;;;;;;0.45;0.45;;;;;;;4.34;59.41;100183.13;5309702;26;20101;-90
2023/12/09 06:13:55;;;;;;;0.35;0.35;;;;;;;4.41;59.42;100180.53;5309572;26;20401;-90
2023/12/09 06:16:20;;;;;;;1.50;1.40;;;;;;;4.28;59.42;100190.00;5327796;26;20111;-89
2023/12/09 06:18:47;;;;;;;1.70;0.75;;;;;;;4.22;59.41;100189.97;5326851;26;21107;-87
2023/12/09 06:21:22;;;;;;;0.98;0.98;;;;;;;4.14;59.41;100199.44;5346248;26;20063;-88
2023/12/09 06:23:47;;;;;;;0.10;0.10;;;;;;;4.06;59.41;100195.12;5328020;26;20056;-88
2023/12/09 06:26:13;;;;;;;0.60;0.60;;;;;;;4.16;59.41;100192.56;5346152;26;20043;-87
2023/12/09 06:28:38;;;;;;;3.72;2.53;;;;;;;4.12;59.40;100192.56;5348861;26;20115;-88
2023/12/09 06:31:03;;;;;;;1.08;1.08;;;;;;;4.12;59.40;100192.56;5308488;26;26514;-89
2023/12/09 06:33:29;;;;;;;3.87;2.72;;;;;;;4.28;59.42;100189.16;5327433;26;20070;-88
2023/12/09 06:35:54;;;;;;;1.15;1.05;;;;;;;4.37;59.42;100188.28;5345689;26;20070;-88
2023/12/09 06:38:19;;;;;;;0.52;0.50;;;;;;;4.38;59.42;100185.69;5308273;26;24876;-88
2023/12/09 06:40:45;;;;;;;2.15;1.37;;;;;;;4.39;59.42;100186.56;5308401;26;22267;-89
2023/12/09 06:43:10;;;;;;;1.12;1.02;;;;;;;4.33;59.41;100192.56;5308157;26;23065;-89
2023/12/09 06:45:36;;;;;;;0.75;0.75;;;;;;;4.20;59.40;100193.41;5327295;26;20076;-89
2023/12/09 06:48:01;;;;;;;2.15;1.45;;;;;;;4.22;59.41;100194.28;5309751;26;20153;-88
2023/12/09 06:50:27;;;;;;;0.95;0.90;;;;;;;4.24;59.41;100196.00;5345646;26;20344;-88
2023/12/09 06:52:52;;;;;;;1.37;1.37;;;;;;;4.17;59.41;100191.69;5326646;26;20844;-88
2023/12/09 06:55:18;;;;;;;1.37;1.10;;;;;;;4.39;59.42;100192.56;5365830;26;20045;-88
2023/12/09 06:57:43;;;;;;;2.12;1.92;;;;;;;4.47;59.42;100184.81;5326033;26;30110;-89
2023/12/09 07:00:12;;;;;;;3.90;2.65;;;;;;;4.71;59.43;100196.84;5326586;26;24730;-87
2023/12/09 07:02:38;;;;;;;0.82;0.82;;;;;;;4.64;59.44;100193.41;5309099;26;20111;-88
2023/12/09 07:05:04;;;;;;;2.90;1.75;;;;;;;4.61;59.43;100202.00;5327177;26;20090;-88
2023/12/09 07:07:29;;;;;;;2.15;1.00;;;;;;;4.63;59.43;100202.00;5345557;26;20490;-88
2023/12/09 07:09:56;;;;;;;0.85;0.77;;;;;;;4.63;59.43;100200.28;5347502;26;20083;-87
2023/12/09 07:12:21;;;;;;;2.40;0.95;;;;;;;4.57;59.43;100202.87;5345443;26;20072;-86
2023/12/09 07:14:47;;;;;;;0.28;0.28;;;;;;;4.78;59.44;100194.28;5308684;26;20102;-88
2023/12/09 07:17:12;;;;;;;1.80;0.90;;;;;;;4.51;59.43;100200.31;5326716;26;20072;-89
2023/12/09 07:19:38;;;;;;;1.75;0.65;;;;;;;4.48;59.42;100202.87;5326663;26;20124;-88
2023/12/09 07:22:03;;;;;;;1.08;1.08;;;;;;;4.41;59.42;100208.88;5326033;26;25692;-88
2023/12/09 07:24:28;;;;;;;2.70;1.40;;;;;;;4.53;59.43;100208.03;5308562;26;20146;-87
2023/12/09 07:26:54;;;;;;;3.50;2.40;;;;;;;4.51;59.43;100205.47;5308507;26;20064;-88
2023/12/09 07:29:19;;;;;;;2.75;1.87;;;;;;;4.56;59.43;100202.87;5348695;26;20083;-89
2023/12/09 07:31:45;;;;;;;2.22;2.05;;;;;;;4.50;59.43;100201.19;5346115;26;20075;-87
2023/12/09 07:34:16;;;;;;;0.03;0.03;;;;;;;4.61;59.43;100212.34;5308412;26;20076;-88
2023/12/09 07:36:44;;;;;;;0.77;0.77;;;;;;;4.57;59.42;100209.75;5328380;26;20064;-88
2023/12/09 07:39:09;;;;;;;2.92;1.45;;;;;;;4.58;59.43;100208.91;5327208;26;20091;-87
2023/12/09 07:41:35;;;;;;;2.35;2.15;;;;;;;4.61;59.43;100212.34;5325759;26;21761;-87
2023/12/09 07:44:01;;;;;;;2.35;2.15;;;;;;;4.79;59.45;100211.47;5307963;26;20080;-87
2023/12/09 07:46:26;;;;;;;5.32;3.12;;;;;;;4.79;59.45;100205.44;5308233;26;20072;-87
2023/12/09 07:48:52;;;;;;;0.28;0.28;;;;;;;4.79;59.45;100210.59;5307442;26;32117;-87
2023/12/09 07:51:17;;;;;;;4.85;2.80;;;;;;;4.73;59.44;100208.00;5307820;26;22187;-88
2023/12/09 07:53:42;;;;;;;1.23;0.57;;;;;;;4.91;59.45;100206.28;5307774;26;23915;-88
2023/12/09 07:56:08;;;;;;;3.60;2.58;;;;;;;4.88;59.45;100200.25;5307821;26;23424;-87
2023/12/09 07:58:34;;;;;;;8.13;4.78;;;;;;;4.97;59.45;100197.69;5326839;26;20067;-88
2023/12/09 08:01:01;;;;;;;0.82;0.82;;;;;;;4.90;59.45;100203.69;5344751;26;26190;-87
2023/12/09 08:03:27;;;;;;;0.60;0.60;;;;;;;4.97;59.45;100204.53;5347192;26;20348;-88
2023/12/09 08:05:53;;;;;;;1.45;1.35;;;;;;;4.82;59.45;100200.28;5327784;26;20059;-87
2023/12/09 08:08:18;;;;;;;3.45;1.20;;;;;;;5.03;59.46;100207.97;5345634;26;20124;-88
2023/12/09 08:10:43;;;;;;;1.02;1.02;;;;;;;5.27;59.48;100201.03;5346092;26;20098;-88
2023/12/09 08:13:10;;;;;;;1.25;0.80;;;;;;;5.32;59.48;100191.56;5346031;26;20337;-88
2023/12/09 08:15:36;;;;;;;1.65;1.60;;;;;;;5.00;59.45;100187.34;5327888;26;20123;-88
2023/12/09 08:18:01;;;;;;;1.50;1.40;;;;;;;4.94;59.46;100195.09;5327266;26;20078;-86
2023/12/09 08:20:26;;;;;;;2.37;2.25;;;;;;;5.22;59.46;100194.19;5308305;26;26786;-88
2023/12/09 08:22:52;;;;;;;1.00;0.95;;;;;;;5.39;59.49;100198.41;5366357;26;20328;-89
2023/12/09 08:25:18;;;;;;;1.48;1.42;;;;;;;5.40;59.48;100195.81;5328366;26;20102;-88
2023/12/09 08:27:44;;;;;;;1.10;1.02;;;;;;;5.40;59.48;100200.97;5346209;26;20101;-88
2023/12/09 08:30:10;;;;;;;0.57;0.57;;;;;;;5.43;59.48;100193.22;5345704;26;20072;-89
2023/12/09 08:32:38;;;;;;;1.02;1.02;;;;;;;5.47;59.48;100197.53;5346272;26;20483;-88
2023/12/09 08:35:04;;;;;;;0.60;0.60;;;;;;;5.66;59.49;100194.84;5327636;26;20064;-88
2023/12/09 08:37:29;;;;;;;2.37;2.10;;;;;;;5.67;59.49;100194.81;5345949;26;20163;-89
2023/12/09 08:39:55;;;;;;;1.50;1.40;;;;;;;5.72;59.50;100194.81;5327223;26;20055;-89
2023/12/09 08:42:20;;;;;;;1.50;1.37;;;;;;;5.70;59.50;100188.81;5308471;26;20111;-88
2023/12/09 08:44:46;;;;;;;1.37;1.27;;;;;;;5.66;59.49;100194.84;5348323;26;20078;-88
2023/12/09 08:47:11;;;;;;;0.22;0.22;;;;;;;5.81;59.50;100187.00;5345210;26;22535;-88
2023/12/09 08:49:36;;;;;;;1.95;1.40;;;;;;;5.84;59.51;100192.16;5344020;26;21288;-88
2023/12/09 08:52:02;;;;;;;0.62;0.62;;;;;;;5.93;59.51;100194.75;5325502;26;23508;-89
2023/12/09 08:54:27;;;;;;;1.73;1.58;;;;;;;5.70;59.50;100192.25;5326831;26;20079;-89
2023/12/09 08:56:53;;;;;;;2.25;2.15;;;;;;;5.97;59.51;100204.19;5308359;26;21908;-88
2023/12/09 08:59:18;;;;;;;2.90;2.62;;;;;;;5.88;59.50;100201.59;5346096;26;20480;-89
2023/12/09 09:01:43;;;;;;;1.40;1.35;;;;;;;5.99;59.51;100209.34;5326561;26;26788;-88
2023/12/09 09:04:09;;;;;;;12.55;2.83;;;;;;;6.07;59.52;100205.81;5327641;26;20080;-88
2023/12/09 09:06:34;;;;;;;0.28;0.28;;;;;;;6.09;59.52;100201.50;5331382;26;20329;-88
2023/12/09 09:09:00;;;;;;;4.47;4.15;;;;;;;6.09;59.52;100198.91;5346626;26;20060;-89
2023/12/09 09:11:25;;;;;;;1.87;1.50;;;;;;;6.05;59.51;100199.81;5346809;26;20094;-89
2023/12/09 09:13:51;;;;;;;4.05;3.50;;;;;;;6.00;59.51;100205.88;5346906;26;22260;-87
2023/12/09 09:16:16;;;;;;;1.55;1.45;;;;;;;6.09;59.52;100205.81;5347329;26;20357;-87
2023/12/09 09:18:44;;;;;;;1.33;1.12;;;;;;;5.96;59.51;100204.19;5329190;26;20051;-87
2023/12/09 09:21:10;;;;;;;0.75;0.75;;;;;;;6.02;59.51;100201.56;5330186;26;20052;-87
2023/12/09 09:23:35;;;;;;;0.88;0.80;;;;;;;5.98;59.50;100202.47;5346466;26;26337;-87
2023/12/09 09:26:01;;;;;;;0.45;0.45;;;;;;;6.27;59.52;100189.31;5310735;26;20064;-87
2023/12/09 09:28:26;;;;;;;0.70;0.70;;;;;;;6.21;59.53;100187.66;5310852;26;20092;-87
2023/12/09 09:30:52;;;;;;;5.07;0.85;;;;;;;6.12;59.51;100190.28;5367329;26;27365;-87
2023/12/09 09:33:17;;;;;;;1.05;0.82;;;;;;;6.15;59.52;100190.25;5346812;26;33166;-87
2023/12/09 09:35:45;;;;;;;5.93;0.60;;;;;;;6.01;59.51;100187.78;5347781;26;20057;-87
2023/12/09 09:38:12;;;;;;;9.88;4.12;;;;;;;5.93;59.51;100188.72;5368256;26;20052;-87
2023/12/09 09:40:37;;;;;;;0.17;0.17;;;;;;;6.00;59.51;100187.78;5329217;26;28612;-87
2023/12/09 09:43:08;;;;;;;0.40;0.40;;;;;;;5.93;59.51;100180.97;5367655;26;20104;-87
2023/12/09 09:45:34;;;;;;;1.67;1.58;;;;;;;5.98;59.50;100181.78;5328505;26;21852;-87
2023/12/09 09:48:04;;;;;;;0.90;0.85;;;;;;;5.92;59.51;100184.41;5347431;26;20407;-87
2023/12/09 09:50:29;;;;;;;2.62;2.03;;;;;;;6.09;59.52;100170.50;5310788;26;20060;-87
2023/12/09 09:52:55;;;;;;;1.52;1.42;;;;;;;6.04;59.51;100168.81;5310228;26;20123;-87
2023/12/09 09:55:22;;;;;;;5.95;2.50;;;;;;;5.99;59.51;100173.16;5347330;26;20417;-87
2023/12/09 09:57:48;;;;;;;0.47;0.47;;;;;;;6.00;59.51;100164.53;5367548;26;20115;-87
2023/12/09 10:00:14;;;;;;;6.90;3.75;;;;;;;6.06;59.52;100159.31;5332063;26;20024;-87
2023/12/09 10:02:44;;;;;;;1.35;1.12;;;;;;;6.20;59.52;100159.22;5310421;26;20064;-87
2023/12/09 10:05:13;;;;;;;;;;;;;;;6.13;59.52;100161.84;5329760;26;20121;-87
2023/12/09 10:07:39;;;;;;;1.70;1.60;;;;;;;6.21;59.53;100158.38;5328962;26;20379;-87
2023/12/09 10:10:06;;;;;;;1.37;1.27;;;;;;;6.26;59.52;100152.28;5328787;26;20052;-86
2023/12/09 10:12:32;;;;;;;1.77;1.67;;;;;;;6.34;59.53;100158.22;5329129;26;20098;-87
2023/12/09 10:14:57;;;;;;;1.00;1.00;;;;;;;6.22;59.53;100150.59;5310633;26;20317;-87
2023/12/09 10:17:23;;;;;;;1.35;1.30;;;;;;;6.30;59.53;100156.53;5309656;26;31424;-88
2023/12/09 10:19:48;;;;;;;1.75;1.42;;;;;;;6.32;59.53;100152.22;5310616;26;20056;-88
2023/12/09 10:22:14;;;;;;;0.20;0.20;;;;;;;6.31;59.53;100147.91;5350089;26;20117;-87
2023/12/09 10:24:50;;;;;;;5.87;1.40;;;;;;;6.38;59.53;100138.38;5346659;26;20145;-87
2023/12/09 10:27:16;;;;;;;3.80;3.00;;;;;;;6.34;59.53;100132.37;5346737;26;20469;-86
2023/12/09 10:29:42;;;;;;;1.60;1.50;;;;;;;6.34;59.52;100124.63;5309956;26;20045;-86
2023/12/09 10:32:07;;;;;;;0.77;0.75;;;;;;;6.25;59.52;100123.84;5328472;26;20060;-85
2023/12/09 10:34:33;;;;;;;6.18;3.83;;;;;;;6.20;59.53;100126.50;5347301;26;20107;-86
2023/12/09 10:36:58;;;;;;;12.98;3.15;;;;;;;6.27;59.52;100127.28;5327910;26;22764;-87
2023/12/09 10:39:24;;;;;;;7.57;3.78;;;;;;;6.31;59.53;100124.66;5328682;26;20064;-86
2023/12/09 10:41:50;;;;;;;1.25;1.25;;;;;;;6.40;59.53;100123.72;5355973;26;20036;-84
2023/12/09 10:44:16;;;;;;;0.70;0.70;;;;;;;6.54;59.54;100116.69;5356357;26;20317;-87
2023/12/09 10:46:41;;;;;;;1.15;1.15;;;;;;;6.44;59.54;100115.06;5349088;26;20413;-87
2023/12/09 10:49:07;;;;;;;3.20;0.37;;;;;;;6.42;59.53;100106.47;5347250;26;29923;-87
2023/12/09 10:51:32;;;;;;;2.65;1.50;;;;;;;6.50;59.53;100106.38;5328601;26;20087;-87
2023/12/09 10:53:57;;;;;;;1.83;1.67;;;;;;;6.43;59.54;100114.22;5309534;26;29756;-87
2023/12/09 10:56:23;;;;;;;0.98;0.98;;;;;;;6.46;59.54;100113.31;5346307;26;36088;-87
2023/12/09 10:58:48;;;;;;;0.77;0.77;;;;;;;6.65;59.54;100111.41;5346294;26;29523;-87
2023/12/09 11:01:15;;;;;;;1.25;1.25;;;;;;;6.74;59.55;100099.22;5329111;26;20074;-87
2023/12/09 11:03:41;;;;;;;1.20;1.15;;;;;;;6.82;59.56;100111.22;5367566;26;20090;-87
2023/12/09 11:06:06;;;;;;;1.67;1.58;;;;;;;6.95;59.57;100108.50;5346605;26;31558;-87
2023/12/09 11:08:32;;;;;;;6.62;1.45;;;;;;;6.92;59.56;100103.34;5347483;26;20048;-87
2023/12/09 11:10:58;;;;;;;3.83;3.08;;;;;;;6.88;59.56;100106.00;5328839;26;20060;-86
2023/12/09 11:13:29;;;;;;;1.95;1.85;;;;;;;6.91;59.56;100086.12;5310995;26;20067;-87
2023/12/09 11:16:16;;;;;;;0.30;0.30;;;;;;;7.02;59.57;100086.84;5349581;26;29425;-86
2023/12/09 11:18:52;;;;;;;2.28;2.05;;;;;;;7.06;59.57;100092.81;5330287;26;20056;-87
2023/12/09 11:21:37;;;;;;;2.35;2.15;;;;;;;6.92;59.56;100079.22;5329034;26;20076;-87
2023/12/09 11:24:03;;;;;;;0.65;0.47;;;;;;;7.14;59.57;100090.16;5344808;26;20070;-87
2023/12/09 11:26:32;;;;;;;5.47;0.80;;;;;;;7.01;59.56;100087.72;5347282;26;20056;-87
2023/12/09 11:29:05;;;;;;;3.95;2.42;;;;;;;6.95;59.57;100092.09;5347270;26;20378;-87